createdAt,value
2019-03-11T00:00:20.347Z,99842.05
2019-03-11T00:02:48.783Z,99840.81
2019-03-11T00:05:17.254Z,99838.70
2019-03-11T00:07:45.653Z,99835.40
2019-03-11T00:10:14.159Z,99841.34
2019-03-11T00:12:42.769Z,99839.32
2019-03-11T00:15:11.343Z,99837.59
2019-03-11T00:17:40.071Z,99843.48
2019-03-11T00:20:09.731Z,99836.78
2019-03-11T00:22:38.170Z,99834.72
2019-03-11T00:25:07.436Z,99830.63
2019-03-11T00:27:35.844Z,99832.37
2019-03-11T00:30:13.306Z,99823.15
2019-03-11T00:32:41.765Z,99834.11
2019-03-11T00:35:10.173Z,99827.86
2019-03-11T00:37:38.615Z,99825.75
2019-03-11T00:40:10.413Z,99825.35
2019-03-11T00:42:39.036Z,99824.55
2019-03-11T00:45:10.475Z,99816.55
2019-03-11T00:47:38.860Z,99823.77
2019-03-11T00:50:09.932Z,99818.75
2019-03-11T00:52:38.600Z,99829.23
2019-03-11T00:55:09.777Z,99827.15
2019-03-11T00:57:38.303Z,99830.53
2019-03-11T01:00:29.316Z,99823.83
2019-03-11T01:02:57.784Z,99834.34
2019-03-11T01:05:27.169Z,99833.91
2019-03-11T01:07:59.251Z,99822.95
2019-03-11T01:10:27.810Z,99828.45
2019-03-11T01:12:56.300Z,99822.95
2019-03-11T01:15:24.940Z,99823.41
2019-03-11T01:17:53.395Z,99826.35
2019-03-11T01:20:21.858Z,99827.61
2019-03-11T01:22:50.282Z,99828.47
2019-03-11T01:25:18.834Z,99825.53
2019-03-11T01:27:47.252Z,99825.15
2019-03-11T01:30:16.807Z,99824.73
2019-03-11T01:32:45.248Z,99820.47
2019-03-11T01:35:13.824Z,99817.50
2019-03-11T01:37:42.284Z,99815.38
2019-03-11T01:40:16.272Z,99808.66
2019-03-11T01:42:47.603Z,99806.13
2019-03-11T01:45:18.255Z,99808.64
2019-03-11T01:47:46.663Z,99804.02
2019-03-11T01:50:15.803Z,99804.02
2019-03-11T01:52:44.322Z,99804.42
2019-03-11T01:55:13.922Z,99808.64
2019-03-11T01:57:42.408Z,99802.33
2019-03-11T02:00:18.638Z,99812.41
2019-03-11T02:02:48.565Z,99816.23
2019-03-11T02:05:17.547Z,99803.16
2019-03-11T02:07:45.956Z,99811.14
2019-03-11T02:10:18.886Z,99809.86
2019-03-11T02:12:47.837Z,99801.95
2019-03-11T02:15:17.781Z,99796.88
2019-03-11T02:17:46.263Z,99802.77
2019-03-11T02:20:17.136Z,99794.78
2019-03-11T02:22:45.513Z,99787.60
2019-03-11T02:25:15.472Z,99781.33
2019-03-11T02:27:44.028Z,99777.09
2019-03-11T02:30:18.471Z,99777.53
2019-03-11T02:32:46.871Z,99787.64
2019-03-11T02:35:21.182Z,99784.24
2019-03-11T02:37:49.588Z,99783.88
2019-03-11T02:40:18.699Z,99789.75
2019-03-11T02:42:47.174Z,99778.38
2019-03-11T02:45:15.582Z,99779.63
2019-03-11T02:47:44.057Z,99788.45
2019-03-11T02:50:13.297Z,99784.22
2019-03-11T02:52:41.760Z,99777.08
2019-03-11T02:55:10.368Z,99776.62
2019-03-11T02:57:38.742Z,99773.66
2019-03-11T03:00:19.313Z,99779.09
2019-03-11T03:02:49.528Z,99774.86
2019-03-11T03:05:22.544Z,99774.86
2019-03-11T03:07:51.065Z,99771.93
2019-03-11T03:10:19.483Z,99773.19
2019-03-11T03:12:47.889Z,99769.81
2019-03-11T03:15:16.415Z,99774.45
2019-03-11T03:17:44.850Z,99769.81
2019-03-11T03:20:15.824Z,99775.27
2019-03-11T03:22:44.295Z,99773.98
2019-03-11T03:25:14.617Z,99766.41
2019-03-11T03:27:43.215Z,99763.45
2019-03-11T03:30:15.032Z,99763.42
2019-03-11T03:32:43.567Z,99760.94
2019-03-11T03:35:12.550Z,99761.78
2019-03-11T03:37:41.237Z,99759.72
2019-03-11T03:40:11.886Z,99764.34
2019-03-11T03:42:40.432Z,99763.50
2019-03-11T03:45:22.718Z,99760.98
2019-03-11T03:47:51.651Z,99760.19
2019-03-11T03:50:22.077Z,99758.53
2019-03-11T03:52:50.641Z,99770.78
2019-03-11T03:55:19.165Z,99766.58
2019-03-11T03:57:47.656Z,99763.61
2019-03-11T04:00:16.606Z,99768.25
2019-03-11T04:02:45.059Z,99761.95
2019-03-11T04:05:14.036Z,99758.19
2019-03-11T04:07:42.555Z,99764.50
2019-03-11T04:10:16.379Z,99753.60
2019-03-11T04:12:45.326Z,99743.93
2019-03-11T04:15:14.695Z,99754.48
2019-03-11T04:17:43.949Z,99756.20
2019-03-11T04:20:15.110Z,99758.70
2019-03-11T04:22:43.535Z,99760.41
2019-03-11T04:25:12.273Z,99766.70
2019-03-11T04:27:40.879Z,99762.06
2019-03-11T04:30:18.296Z,99769.64
2019-03-11T04:32:46.775Z,99768.34
2019-03-11T04:35:15.307Z,99775.13
2019-03-11T04:37:43.727Z,99770.05
2019-03-11T04:40:14.492Z,99777.63
2019-03-11T04:42:43.084Z,99784.77
2019-03-11T04:45:14.018Z,99791.45
2019-03-11T04:47:42.417Z,99786.41
2019-03-11T04:50:13.203Z,99792.65
2019-03-11T04:52:41.658Z,99790.53
2019-03-11T04:55:12.436Z,99790.45
2019-03-11T04:57:43.267Z,99784.20
2019-03-11T05:00:14.719Z,99781.16
2019-03-11T05:02:43.169Z,99775.24
2019-03-11T05:05:11.835Z,99780.23
2019-03-11T05:07:40.259Z,99779.86
2019-03-11T05:10:16.155Z,99776.45
2019-03-11T05:12:43.615Z,99775.96
2019-03-11T05:15:14.374Z,99768.80
2019-03-11T05:17:42.864Z,99772.59
2019-03-11T05:20:13.445Z,99768.40
2019-03-11T05:22:42.302Z,99767.65
2019-03-11T05:25:14.823Z,99775.59
2019-03-11T05:27:43.261Z,99770.52
2019-03-11T05:30:17.080Z,99768.83
2019-03-11T05:32:45.557Z,99772.64
2019-03-11T05:35:14.002Z,99773.89
2019-03-11T05:37:42.402Z,99770.08
2019-03-11T05:40:18.578Z,99781.02
2019-03-11T05:42:47.526Z,99771.77
2019-03-11T05:45:19.931Z,99775.14
2019-03-11T05:47:48.673Z,99776.91
2019-03-11T05:50:18.263Z,99773.89
2019-03-11T05:52:46.735Z,99770.88
2019-03-11T05:55:15.375Z,99778.87
2019-03-11T05:57:43.750Z,99786.44
2019-03-11T06:00:21.985Z,99788.11
2019-03-11T06:02:50.412Z,99793.95
2019-03-11T06:05:18.946Z,99793.55
2019-03-11T06:07:47.420Z,99786.00
2019-03-11T06:10:16.684Z,99786.43
2019-03-11T06:12:45.086Z,99788.51
2019-03-11T06:15:14.993Z,99791.07
2019-03-11T06:17:43.605Z,99790.21
2019-03-11T06:20:27.995Z,99793.61
2019-03-11T06:22:56.924Z,99793.58
2019-03-11T06:25:25.352Z,99796.15
2019-03-11T06:27:53.859Z,99808.74
2019-03-11T06:30:22.297Z,99805.41
2019-03-11T06:32:50.696Z,99799.10
2019-03-11T06:35:20.837Z,99803.34
2019-03-11T06:37:49.259Z,99798.75
2019-03-11T06:40:17.746Z,99808.94
2019-03-11T06:42:46.127Z,99801.41
2019-03-11T06:45:15.067Z,99803.98
2019-03-11T06:47:43.496Z,99800.63
2019-03-11T06:50:13.468Z,99806.15
2019-03-11T06:52:41.992Z,99805.40
2019-03-11T06:55:12.048Z,99800.83
2019-03-11T06:57:40.618Z,99799.22
2019-03-11T07:00:20.152Z,99808.08
2019-03-11T07:02:48.603Z,99811.50
2019-03-11T07:05:20.523Z,99808.98
2019-03-11T07:07:47.345Z,99809.42
2019-03-11T07:10:16.711Z,99825.46
2019-03-11T07:12:45.147Z,99814.92
2019-03-11T07:15:17.030Z,99813.65
2019-03-11T07:17:46.116Z,99811.56
2019-03-11T07:20:17.115Z,99819.56
2019-03-11T07:22:45.548Z,99818.32
2019-03-11T07:25:14.110Z,99804.81
2019-03-11T07:27:42.597Z,99816.61
2019-03-11T07:30:16.946Z,99819.98
2019-03-11T07:32:45.500Z,99816.19
2019-03-11T07:35:14.061Z,99824.22
2019-03-11T07:37:42.421Z,99819.14
2019-03-11T07:40:14.023Z,99820.81
2019-03-11T07:42:42.541Z,99814.06
2019-03-11T07:45:13.088Z,99823.79
2019-03-11T07:47:41.513Z,99831.35
2019-03-11T07:50:12.416Z,99828.41
2019-03-11T07:52:40.827Z,99826.70
2019-03-11T07:55:11.005Z,99829.64
2019-03-11T07:57:40.215Z,99838.53
2019-03-11T08:00:17.195Z,99835.95
2019-03-11T08:02:45.705Z,99831.34
2019-03-11T08:05:14.363Z,99840.21
2019-03-11T08:07:42.804Z,99835.17
2019-03-11T08:10:16.608Z,99838.53
2019-03-11T08:12:45.287Z,99831.76
2019-03-11T08:15:14.819Z,99836.38
2019-03-11T08:17:43.470Z,99834.23
2019-03-11T08:20:15.603Z,99816.06
2019-03-11T08:22:44.022Z,99844.72
2019-03-11T08:25:13.887Z,99844.68
2019-03-11T08:27:42.471Z,99841.30
2019-03-11T08:30:34.738Z,99834.55
2019-03-11T08:33:03.187Z,99842.27
2019-03-11T08:35:31.621Z,99846.36
2019-03-11T08:38:04.789Z,99847.69
2019-03-11T08:40:30.402Z,99852.34
2019-03-11T08:42:58.862Z,99855.25
2019-03-11T08:45:27.378Z,99856.20
2019-03-11T08:47:55.970Z,99850.75
2019-03-11T08:50:24.460Z,99858.34
2019-03-11T08:52:53.619Z,99857.07
2019-03-11T08:55:22.232Z,99856.27
2019-03-11T08:57:51.672Z,99857.95
2019-03-11T09:00:24.394Z,99869.78
2019-03-11T09:02:52.818Z,99871.48
2019-03-11T09:05:21.278Z,99881.59
2019-03-11T09:07:49.714Z,99876.11
2019-03-11T09:10:19.547Z,99865.55
2019-03-11T09:12:48.125Z,99879.48
2019-03-11T09:15:18.426Z,99886.25
2019-03-11T09:17:46.909Z,99882.03
2019-03-11T09:20:16.683Z,99885.80
2019-03-11T09:22:46.194Z,99886.66
2019-03-11T09:25:19.320Z,99887.08
2019-03-11T09:27:50.480Z,99878.21
2019-03-11T09:30:23.576Z,99889.61
2019-03-11T09:32:52.148Z,99896.81
2019-03-11T09:35:20.706Z,99897.62
2019-03-11T09:37:49.147Z,99894.27
2019-03-11T09:40:19.965Z,99894.69
2019-03-11T09:42:48.508Z,99893.41
2019-03-11T09:45:18.298Z,99887.93
2019-03-11T09:47:47.354Z,99899.33
2019-03-11T09:50:16.896Z,99906.09
2019-03-11T09:52:45.400Z,99892.98
2019-03-11T09:55:22.262Z,99910.30
2019-03-11T09:57:50.669Z,99899.30
2019-03-11T10:00:23.976Z,99907.34
2019-03-11T10:02:53.456Z,99909.47
2019-03-11T10:05:22.445Z,99919.18
2019-03-11T10:07:50.969Z,99920.00
2019-03-11T10:10:28.059Z,99904.40
2019-03-11T10:12:56.592Z,99920.84
2019-03-11T10:15:25.072Z,99923.37
2019-03-11T10:17:53.783Z,99927.19
2019-03-11T10:20:22.275Z,99926.34
2019-03-11T10:22:50.773Z,99924.64
2019-03-11T10:25:20.682Z,99928.87
2019-03-11T10:27:49.170Z,99930.13
2019-03-11T10:30:21.374Z,99924.20
2019-03-11T10:32:49.956Z,99936.02
2019-03-11T10:35:31.485Z,99942.78
2019-03-11T10:37:49.509Z,99937.30
2019-03-11T10:40:22.570Z,99943.66
2019-03-11T10:42:51.058Z,99942.39
2019-03-11T10:45:30.335Z,99950.81
2019-03-11T10:47:49.858Z,99949.13
2019-03-11T10:50:19.837Z,99955.88
2019-03-11T10:52:48.759Z,99965.63
2019-03-11T10:55:19.575Z,99972.77
2019-03-11T10:57:48.123Z,99976.56
2019-03-11T11:00:29.392Z,99963.51
2019-03-11T11:02:57.932Z,99982.48
2019-03-11T11:05:26.502Z,99977.86
2019-03-11T11:07:55.110Z,99979.95
2019-03-11T11:10:23.644Z,99979.09
2019-03-11T11:12:52.701Z,99978.70
2019-03-11T11:15:25.490Z,99981.66
2019-03-11T11:17:54.262Z,99978.26
2019-03-11T11:20:23.748Z,99979.10
2019-03-11T11:22:53.605Z,99976.59
2019-03-11T11:25:26.901Z,99987.13
2019-03-11T11:27:55.615Z,99985.45
2019-03-11T11:30:28.602Z,100000.24
2019-03-11T11:32:57.569Z,99995.16
2019-03-11T11:35:26.003Z,99985.45
2019-03-11T11:37:54.799Z,99993.05
2019-03-11T11:40:27.935Z,100002.77
2019-03-11T11:42:56.476Z,100001.07
2019-03-11T11:45:27.290Z,100004.45
2019-03-11T11:47:55.880Z,100003.62
2019-03-11T11:50:25.627Z,100013.33
2019-03-11T11:52:54.489Z,100002.75
2019-03-11T11:55:24.082Z,100018.39
2019-03-11T11:57:52.610Z,100021.77
2019-03-11T12:00:33.792Z,100017.97
2019-03-11T12:03:02.337Z,100023.03
2019-03-11T12:05:30.836Z,100017.12
2019-03-11T12:07:59.303Z,100020.52
2019-03-11T12:10:29.421Z,100030.20
2019-03-11T12:12:57.935Z,100020.50
2019-03-11T12:15:26.424Z,100028.55
2019-03-11T12:17:55.337Z,100024.72
2019-03-11T12:20:28.155Z,100042.05
2019-03-11T12:22:56.630Z,100019.25
2019-03-11T12:25:25.280Z,100036.95
2019-03-11T12:27:54.746Z,100033.18
2019-03-11T12:30:34.520Z,100042.04
2019-03-11T12:33:03.108Z,100044.13
2019-03-11T12:35:31.618Z,100051.30
2019-03-11T12:38:00.174Z,100051.27
2019-03-11T12:40:28.832Z,100062.27
2019-03-11T12:42:57.284Z,100058.46
2019-03-11T12:45:26.751Z,100060.16
2019-03-11T12:47:55.250Z,100076.23
2019-03-11T12:50:31.806Z,100062.28
2019-03-11T12:53:00.665Z,100066.53
2019-03-11T12:55:29.387Z,100067.36
2019-03-11T12:57:58.193Z,100072.00
2019-03-11T13:00:26.927Z,100065.65
2019-03-11T13:02:55.397Z,100059.33
2019-03-11T13:05:23.908Z,100058.45
2019-03-11T13:07:52.490Z,100061.41
2019-03-11T13:10:23.439Z,100060.61
2019-03-11T13:12:52.367Z,100068.20
2019-03-11T13:15:21.003Z,100066.52
2019-03-11T13:17:49.800Z,100068.25
2019-03-11T13:20:27.119Z,100075.85
2019-03-11T13:22:55.719Z,100072.48
2019-03-11T13:25:24.180Z,100068.23
2019-03-11T13:27:52.669Z,100076.69
2019-03-11T13:30:21.112Z,100073.30
2019-03-11T13:32:50.170Z,100075.41
2019-03-11T13:35:18.775Z,100069.04
2019-03-11T13:37:47.303Z,100074.95
2019-03-11T13:40:16.680Z,100079.19
2019-03-11T13:42:45.198Z,100082.56
2019-03-11T13:45:18.570Z,100081.69
2019-03-11T13:47:47.106Z,100080.84
2019-03-11T13:50:17.804Z,100091.85
2019-03-11T13:52:46.367Z,100080.44
2019-03-11T13:55:16.618Z,100090.20
2019-03-11T13:57:45.292Z,100099.50
2019-03-11T14:00:17.593Z,100096.98
2019-03-11T14:02:47.785Z,100105.45
2019-03-11T14:05:16.335Z,100106.70
2019-03-11T14:07:44.942Z,100107.93
2019-03-11T14:10:14.710Z,100127.65
2019-03-11T14:12:43.248Z,100126.10
2019-03-11T14:15:14.211Z,100123.94
2019-03-11T14:17:42.870Z,100122.24
2019-03-11T14:20:12.985Z,100113.34
2019-03-11T14:22:41.412Z,100119.16
2019-03-11T14:25:12.129Z,100107.25
2019-03-11T14:27:41.466Z,100108.53
2019-03-11T14:30:15.258Z,100108.55
2019-03-11T14:32:43.686Z,100101.45
2019-03-11T14:35:15.088Z,100103.55
2019-03-11T14:37:43.532Z,100100.16
2019-03-11T14:40:16.580Z,100101.50
2019-03-11T14:42:44.995Z,100091.84
2019-03-11T14:45:18.496Z,100097.81
2019-03-11T14:47:46.947Z,100102.05
2019-03-11T14:50:16.606Z,100099.88
2019-03-11T14:52:45.044Z,100099.51
2019-03-11T14:55:14.750Z,100100.41
2019-03-11T14:57:44.463Z,100100.00
2019-03-11T15:00:21.056Z,100093.73
2019-03-11T15:02:49.882Z,100100.52
2019-03-11T15:05:19.638Z,100090.39
2019-03-11T15:07:48.504Z,100092.52
2019-03-11T15:10:19.215Z,100090.80
2019-03-11T15:12:48.658Z,100089.13
2019-03-11T15:15:25.220Z,100088.33
2019-03-11T15:17:53.886Z,100093.38
2019-03-11T15:20:22.471Z,100095.92
2019-03-11T15:22:50.998Z,100093.83
2019-03-11T15:25:19.902Z,100095.45
2019-03-11T15:27:48.622Z,100100.96
2019-03-11T15:30:19.479Z,100093.38
2019-03-11T15:32:48.751Z,100103.00
2019-03-11T15:35:17.715Z,100095.85
2019-03-11T15:37:47.618Z,100091.25
2019-03-11T15:40:17.120Z,100090.45
2019-03-11T15:42:45.750Z,100097.20
2019-03-11T15:45:15.800Z,100098.46
2019-03-11T15:47:44.477Z,100099.34
2019-03-11T15:50:21.918Z,100103.55
2019-03-11T15:52:50.466Z,100103.94
2019-03-11T15:55:18.941Z,100106.02
2019-03-11T15:57:47.679Z,100120.77
2019-03-11T16:00:24.137Z,100139.30
2019-03-11T16:02:52.813Z,100127.88
2019-03-11T16:05:25.374Z,100126.98
2019-03-11T16:07:54.443Z,100109.23
2019-03-11T16:10:23.463Z,100120.16
2019-03-11T16:12:52.610Z,100110.88
2019-03-11T16:15:21.559Z,100111.30
2019-03-11T16:17:50.204Z,100115.47
2019-03-11T16:20:23.469Z,100107.94
2019-03-11T16:22:52.093Z,100115.94
2019-03-11T16:25:20.803Z,100121.47
2019-03-11T16:27:49.873Z,100123.59
2019-03-11T16:30:28.319Z,100119.00
2019-03-11T16:33:00.219Z,100124.48
2019-03-11T16:35:28.918Z,100121.94
2019-03-11T16:37:57.451Z,100126.16
2019-03-11T16:40:25.950Z,100131.28
2019-03-11T16:42:54.461Z,100130.43
2019-03-11T16:45:22.955Z,100130.48
2019-03-11T16:47:51.483Z,100131.32
2019-03-11T16:50:22.478Z,100139.79
2019-03-11T16:52:50.933Z,100140.66
2019-03-11T16:55:23.301Z,100137.33
2019-03-11T16:57:53.646Z,100128.89
2019-03-11T17:00:24.483Z,100145.36
2019-03-11T17:02:53.013Z,100141.58
2019-03-11T17:05:21.647Z,100153.42
2019-03-11T17:07:50.076Z,100155.09
2019-03-11T17:10:23.127Z,100161.00
2019-03-11T17:12:51.636Z,100169.44
2019-03-11T17:15:20.195Z,100175.38
2019-03-11T17:17:48.630Z,100181.22
2019-03-11T17:20:18.892Z,100180.76
2019-03-11T17:22:47.293Z,100194.26
2019-03-11T17:25:16.280Z,100192.11
2019-03-11T17:27:44.703Z,100194.16
2019-03-11T17:30:24.392Z,100209.37
2019-03-11T17:32:52.954Z,100206.42
2019-03-11T17:35:21.534Z,100211.45
2019-03-11T17:37:50.037Z,100213.56
2019-03-11T17:40:20.399Z,100226.22
2019-03-11T17:42:49.029Z,100232.56
2019-03-11T17:45:18.140Z,100233.40
2019-03-11T17:47:46.563Z,100238.83
2019-03-11T17:50:21.271Z,100242.21
2019-03-11T17:52:50.159Z,100259.91
2019-03-11T17:55:19.645Z,100264.89
2019-03-11T17:57:49.596Z,100262.67
2019-03-11T18:00:26.124Z,100264.83
2019-03-11T18:02:54.776Z,100273.20
2019-03-11T18:05:23.691Z,100282.86
2019-03-11T18:07:52.308Z,100285.02
2019-03-11T18:10:21.290Z,100292.16
2019-03-11T18:12:50.585Z,100301.39
2019-03-11T18:15:19.088Z,100305.59
2019-03-11T18:17:47.570Z,100311.09
2019-03-11T18:20:21.120Z,100318.30
2019-03-11T18:22:49.713Z,100314.42
2019-03-11T18:25:21.654Z,100326.27
2019-03-11T18:27:50.451Z,100331.73
2019-03-11T18:30:21.029Z,100334.72
2019-03-11T18:32:49.739Z,100342.71
2019-03-11T18:35:18.740Z,100351.56
2019-03-11T18:37:47.311Z,100356.17
2019-03-11T18:40:19.982Z,100367.16
2019-03-11T18:42:48.503Z,100373.95
2019-03-11T18:45:18.158Z,100394.25
2019-03-11T18:47:46.629Z,100400.94
2019-03-11T18:50:17.938Z,100405.16
2019-03-11T18:52:46.305Z,100409.80
2019-03-11T18:55:15.177Z,100412.35
2019-03-11T18:57:43.746Z,100415.30
2019-03-11T19:00:15.308Z,100415.34
2019-03-11T19:02:43.835Z,100419.14
2019-03-11T19:05:15.038Z,100430.53
2019-03-11T19:07:43.683Z,100437.27
2019-03-11T19:10:14.769Z,100449.13
2019-03-11T19:12:43.371Z,100450.02
2019-03-11T19:15:14.934Z,100451.28
2019-03-11T19:17:43.423Z,100464.41
2019-03-11T19:20:14.588Z,100470.34
2019-03-11T19:22:43.176Z,100477.53
2019-03-11T19:25:12.239Z,100483.49
2019-03-11T19:27:40.655Z,100489.45
2019-03-11T19:30:12.424Z,100490.23
2019-03-11T19:32:40.864Z,100495.80
2019-03-11T19:35:09.489Z,100498.72
2019-03-11T19:37:37.925Z,100505.89
2019-03-11T19:40:10.117Z,100509.32
2019-03-11T19:42:38.603Z,100511.03
2019-03-11T19:45:10.003Z,100519.47
2019-03-11T19:47:38.991Z,100531.28
2019-03-11T19:50:10.491Z,100538.44
2019-03-11T19:52:38.921Z,100542.20
2019-03-11T19:55:07.594Z,100558.13
2019-03-11T19:57:36.061Z,100573.31
2019-03-11T20:00:07.876Z,100581.61
2019-03-11T20:02:36.916Z,100592.55
2019-03-11T20:05:08.155Z,100603.48
2019-03-11T20:07:36.599Z,100611.11
2019-03-11T20:10:07.953Z,100617.38
2019-03-11T20:12:36.807Z,100627.91
2019-03-11T20:15:08.616Z,100645.69
2019-03-11T20:17:37.086Z,100651.20
2019-03-11T20:20:14.572Z,100662.59
2019-03-11T20:22:43.031Z,100670.61
2019-03-11T20:25:23.274Z,100681.15
2019-03-11T20:27:51.756Z,100687.05
2019-03-11T20:30:22.504Z,100696.66
2019-03-11T20:32:51.111Z,100701.36
2019-03-11T20:35:20.538Z,100703.05
2019-03-11T20:37:49.060Z,100705.64
2019-03-11T20:40:17.827Z,100708.95
2019-03-11T20:42:46.272Z,100708.11
2019-03-11T20:45:19.100Z,100718.94
2019-03-11T20:47:47.775Z,100732.36
2019-03-11T20:50:17.732Z,100732.33
2019-03-11T20:52:46.711Z,100745.37
2019-03-11T20:55:16.652Z,100747.23
2019-03-11T20:57:45.087Z,100749.73
2019-03-11T21:00:21.697Z,100761.18
2019-03-11T21:02:50.446Z,100764.10
2019-03-11T21:05:28.021Z,100772.11
2019-03-11T21:07:56.537Z,100776.30
2019-03-11T21:10:25.022Z,100780.93
2019-03-11T21:12:53.490Z,100788.59
2019-03-11T21:15:21.950Z,100789.37
2019-03-11T21:17:50.378Z,100793.58
2019-03-11T21:20:18.980Z,100803.36
2019-03-11T21:22:47.489Z,100804.13
2019-03-11T21:25:20.868Z,100811.72
2019-03-11T21:27:49.511Z,100814.74
2019-03-11T21:30:20.025Z,100822.38
2019-03-11T21:32:48.598Z,100827.36
2019-03-11T21:35:17.196Z,100823.98
2019-03-11T21:37:45.714Z,100821.88
2019-03-11T21:40:21.871Z,100838.78
2019-03-11T21:42:50.513Z,100837.14
2019-03-11T21:45:19.331Z,100834.19
2019-03-11T21:47:50.763Z,100846.84
2019-03-11T21:50:25.880Z,100848.09
2019-03-11T21:52:54.288Z,100846.87
2019-03-11T21:55:22.838Z,100851.52
2019-03-11T21:57:51.382Z,100854.92
2019-03-11T22:00:33.717Z,100861.26
2019-03-11T22:02:54.782Z,100855.77
2019-03-11T22:05:23.936Z,100857.53
2019-03-11T22:07:52.353Z,100869.34
2019-03-11T22:10:21.787Z,100871.99
2019-03-11T22:12:50.199Z,100882.50
2019-03-11T22:15:21.684Z,100887.56
2019-03-11T22:17:50.136Z,100888.02
2019-03-11T22:20:18.607Z,100888.41
2019-03-11T22:22:47.184Z,100897.73
2019-03-11T22:25:16.720Z,100895.65
2019-03-11T22:27:45.225Z,100891.44
2019-03-11T22:30:18.908Z,100901.56
2019-03-11T22:32:47.502Z,100893.12
2019-03-11T22:35:16.313Z,100901.17
2019-03-11T22:37:44.806Z,100905.86
2019-03-11T22:40:18.077Z,100910.96
2019-03-11T22:42:46.472Z,100916.38
2019-03-11T22:45:19.798Z,100921.51
2019-03-11T22:47:49.271Z,100922.81
2019-03-11T22:50:18.241Z,100927.03
2019-03-11T22:52:47.419Z,100939.27
2019-03-11T22:55:17.535Z,100938.42
2019-03-11T22:57:45.974Z,100938.00
2019-03-11T23:00:35.536Z,100943.53
2019-03-11T23:03:06.722Z,100952.39
2019-03-11T23:05:34.625Z,100957.45
2019-03-11T23:08:03.071Z,100961.25
2019-03-11T23:10:31.514Z,100962.52
2019-03-11T23:13:00.581Z,100965.05
2019-03-11T23:15:29.079Z,100963.40
2019-03-11T23:17:57.518Z,100968.47
2019-03-11T23:20:25.959Z,100974.41
2019-03-11T23:22:54.410Z,100977.41
2019-03-11T23:25:22.856Z,100971.08
2019-03-11T23:27:51.270Z,100972.38
2019-03-11T23:30:19.864Z,100974.07
2019-03-11T23:32:48.276Z,100977.48
2019-03-11T23:35:16.711Z,100980.41
2019-03-11T23:37:45.172Z,100967.78
2019-03-11T23:40:13.761Z,100974.91
2019-03-11T23:42:42.202Z,100977.83
2019-03-11T23:45:11.762Z,100978.63
2019-03-11T23:47:40.252Z,100977.78
2019-03-11T23:50:13.812Z,100977.41
2019-03-11T23:52:42.222Z,100977.78
2019-03-11T23:55:11.750Z,100990.88
2019-03-11T23:57:40.206Z,100987.08
